Terminal Aerodrome Forecast
Issued by NWS Binghamton, NY

Home | Current Version | Previous Version | Text Only | Print | Product List | Glossary On
Versions: 1 2 3 4 5 6 7 8 9 10 11 12 13 14 15
000
FTUS41 KBGM 230332 AAC
TAFBGM
TAF AMD
KBGM 230332Z 2304/2324 20005KT P6SM BKN040
      TEMPO 2309/2313 1SM BR OVC008
     FM231400 20012G22KT P6SM BKN045=

USA.gov is the U.S. government's official web portal to all federal, state and local government web resources and services.